Time;durP1;ratioP1;P1;durP2;ratioP2;P2;SDS_P1;SDS_P2;PMS_P1;PMS_P2;Temp;Humidity;BMP_temperature;BMP_pressure;BME280_temperature;BME280_humidity;BME280_pressure;Samples;Min_cycle;Max_cycle;Signal;HPM_P1;HPM_P2
2023/01/29 00:01:13;;;;;;;;;3.00;3.00;;;;;19.85;54.15;101732.40;111658;1254;18670;-78
2023/01/29 00:03:41;;;;;;;;;3.00;3.00;;;;;19.86;54.18;101724.69;111197;1270;19435;-77
2023/01/29 00:06:08;;;;;;;;;3.00;3.00;;;;;19.86;53.90;101728.30;111634;1270;19705;-77
2023/01/29 00:08:36;;;;;;;;;1.00;1.00;;;;;19.87;54.15;101728.39;111249;1270;18815;-77
2023/01/29 00:11:03;;;;;;;;;2.00;2.00;;;;;19.86;54.03;101727.73;111603;1269;20703;-77
2023/01/29 00:13:31;;;;;;;;;3.00;3.00;;;;;19.86;54.21;101721.60;111132;1270;18225;-77
2023/01/29 00:15:58;;;;;;;;;3.00;3.00;;;;;19.85;54.05;101712.40;111571;1270;18662;-77
2023/01/29 00:18:27;;;;;;;;;3.00;3.00;;;;;19.85;54.18;101708.42;111205;1270;19763;-78
2023/01/29 00:20:54;;;;;;;;;3.00;3.00;;;;;19.84;54.13;101701.43;111424;1269;18757;-77
2023/01/29 00:23:22;;;;;;;;;1.00;1.00;;;;;19.85;54.01;101699.88;111564;1270;21032;-78
2023/01/29 00:25:49;;;;;;;;;3.00;3.00;;;;;19.84;54.11;101692.56;111438;1269;19477;-78
2023/01/29 00:28:17;;;;;;;;;4.00;3.00;;;;;19.85;53.90;101683.83;111650;1270;19801;-78
2023/01/29 00:30:44;;;;;;;;;3.00;3.00;;;;;19.83;54.13;101679.56;111420;1270;19988;-77
2023/01/29 00:33:12;;;;;;;;;2.00;2.00;;;;;19.83;53.97;101676.30;111494;1254;20871;-77
2023/01/29 00:35:39;;;;;;;;;3.00;3.00;;;;;19.84;54.17;101678.08;111402;1270;19942;-77
2023/01/29 00:38:07;;;;;;;;;4.00;3.00;;;;;19.84;54.05;101679.88;111704;1270;18628;-77
2023/01/29 00:44:56;;;;;;;;;3.00;3.00;;;;;19.84;53.84;101671.23;111415;1269;21039;-77
2023/01/29 00:46:07;;;;;;;;;4.00;3.00;;;;;19.82;53.94;101669.35;111751;1269;20167;-77
2023/01/29 00:48:35;;;;;;;;;3.00;3.00;;;;;19.84;53.79;101674.09;111341;1270;19409;-77
2023/01/29 00:51:02;;;;;;;;;3.00;3.00;;;;;19.84;54.02;101676.27;111744;1269;18230;-77
2023/01/29 00:53:30;;;;;;;;;1.00;1.00;;;;;19.83;53.81;101677.22;111088;1270;18913;-77
2023/01/29 00:55:57;;;;;;;;;1.00;1.00;;;;;19.84;53.86;101674.42;111681;1269;19734;-78
2023/01/29 00:58:27;;;;;;;;;1.00;1.00;;;;;19.83;54.08;101676.70;111378;1254;18220;-77
2023/01/29 01:00:54;;;;;;;;;1.00;1.00;;;;;19.83;53.87;101679.59;111438;1269;20125;-78
2023/01/29 01:03:22;;;;;;;;;3.00;3.00;;;;;19.82;53.84;101679.03;111399;1254;21003;-77
2023/01/29 01:05:49;;;;;;;;;3.00;3.00;;;;;19.84;53.84;101686.80;111432;1270;18332;-78
2023/01/29 01:11:02;;;;;;;;;1.00;1.00;;;;;19.83;53.90;101689.59;111587;1257;21141;-77
2023/01/29 01:13:29;;;;;;;;;3.00;3.00;;;;;19.82;53.76;101684.58;111430;1270;18481;-77
2023/01/29 01:15:57;;;;;;;;;3.00;3.00;;;;;19.82;53.89;101683.87;111447;1254;20093;-77
2023/01/29 01:18:24;;;;;;;;;3.00;3.00;;;;;19.82;53.89;101679.71;111382;1270;20764;-77
2023/01/29 01:20:52;;;;;;;;;3.00;3.00;;;;;19.82;53.62;101681.20;111613;1270;18233;-77
2023/01/29 01:23:19;;;;;;;;;4.00;3.00;;;;;19.82;53.84;101686.05;111432;1269;18865;-78
2023/01/29 01:25:47;;;;;;;;;1.00;1.00;;;;;19.82;53.79;101685.84;111560;1254;21750;-77
2023/01/29 01:28:14;;;;;;;;;3.00;3.00;;;;;19.83;53.81;101677.22;111425;1254;21086;-78
2023/01/29 01:30:42;;;;;;;;;1.00;1.00;;;;;19.82;53.76;101674.25;111745;1254;21270;-77
2023/01/29 01:33:09;;;;;;;;;3.00;3.00;;;;;19.82;53.79;101680.77;111437;1269;21047;-77
2023/01/29 01:35:37;;;;;;;;;3.00;3.00;;;;;19.82;53.70;101681.49;111648;1254;20361;-78
2023/01/29 01:38:04;;;;;;;;;3.00;3.00;;;;;19.83;53.75;101682.92;111413;1269;19009;-77
2023/01/29 01:40:32;;;;;;;;;3.00;3.00;;;;;19.83;53.78;101681.28;111470;1262;19509;-77
2023/01/29 01:42:59;;;;;;;;;3.00;3.00;;;;;19.82;53.70;101680.23;111454;1270;19504;-77
2023/01/29 01:45:27;;;;;;;;;3.00;3.00;;;;;19.82;53.67;101675.22;111228;1270;19952;-77
2023/01/29 01:47:54;;;;;;;;;2.00;2.00;;;;;19.81;53.71;101677.86;111399;1270;22214;-77
2023/01/29 01:50:22;;;;;;;;;3.00;3.00;;;;;19.81;53.88;101676.54;111751;1254;18410;-77
2023/01/29 01:52:49;;;;;;;;;3.00;3.00;;;;;19.81;53.67;101683.98;111392;1270;18864;-77
2023/01/29 01:55:17;;;;;;;;;4.00;3.00;;;;;19.81;53.76;101692.50;111500;1269;19385;-77
2023/01/29 01:57:44;;;;;;;;;3.00;3.00;;;;;19.81;53.76;101692.13;111384;1270;18364;-77
2023/01/29 02:00:12;;;;;;;;;3.00;3.00;;;;;19.81;53.86;101687.48;111502;1255;18628;-77
2023/01/29 02:10:54;;;;;;;;;1.00;1.00;;;;;19.80;53.58;101680.29;111340;1270;19355;-78
2023/01/29 02:13:22;;;;;;;;;1.00;1.00;;;;;19.79;53.49;101679.97;111238;1270;18402;-77
2023/01/29 02:15:49;;;;;;;;;3.00;3.00;;;;;19.80;53.72;101682.23;111384;1270;18799;-78
2023/01/29 02:18:17;;;;;;;;;3.00;3.00;;;;;19.81;53.60;101675.14;111117;1271;21698;-77
2023/01/29 02:20:44;;;;;;;;;1.00;1.00;;;;;19.81;53.74;101668.79;111370;1270;18523;-78
2023/01/29 02:23:11;;;;;;;;;1.00;1.00;;;;;19.80;53.54;101665.42;110877;1263;20168;-77
2023/01/29 02:25:39;;;;;;;;;3.00;1.00;;;;;19.80;53.76;101665.02;111419;1255;20730;-77
2023/01/29 02:28:06;;;;;;;;;1.00;1.00;;;;;19.80;53.86;101658.12;111148;1255;18763;-77
2023/01/29 02:30:34;;;;;;;;;1.00;1.00;;;;;19.81;53.67;101653.18;111385;1270;18842;-77
2023/01/29 02:33:06;;;;;;;;;2.33;2.33;;;;;19.79;53.80;101653.31;111065;1271;19739;-77
2023/01/29 02:35:33;;;;;;;;;3.00;3.00;;;;;19.80;53.48;101651.48;111465;1270;18194;-77
2023/01/29 02:38:01;;;;;;;;;3.00;3.00;;;;;19.79;53.60;101648.81;111125;1270;20150;-78
2023/01/29 02:40:28;;;;;;;;;1.00;1.00;;;;;19.79;53.50;101646.50;111471;1263;21019;-76
2023/01/29 02:42:56;;;;;;;;;3.00;2.00;;;;;19.80;53.60;101645.32;111155;1270;18710;-77
2023/01/29 02:45:23;;;;;;;;;1.00;1.00;;;;;19.80;53.61;101641.09;111472;1270;18672;-77
2023/01/29 02:47:51;;;;;;;;;3.00;3.00;;;;;19.78;53.57;101630.23;111205;1255;20989;-77
2023/01/29 02:50:18;;;;;;;;;3.00;1.00;;;;;19.79;53.74;101624.16;111471;1270;18197;-77
2023/01/29 02:52:48;;;;;;;;;1.00;1.00;;;;;19.78;53.59;101623.00;111151;1271;19961;-78
2023/01/29 02:55:15;;;;;;;;;1.00;1.00;;;;;19.77;53.42;101620.02;111190;1270;20912;-77
2023/01/29 02:57:43;;;;;;;;;3.00;3.00;;;;;19.79;53.54;101624.52;111525;1262;20843;-77
2023/01/29 03:00:10;;;;;;;;;3.00;3.00;;;;;19.79;53.43;101623.96;111241;1270;21217;-77
2023/01/29 03:02:38;;;;;;;;;3.00;3.00;;;;;19.78;53.64;101625.38;111687;1270;19865;-77
2023/01/29 03:05:06;;;;;;;;;3.00;3.00;;;;;19.79;53.60;101629.00;111291;1270;18418;-77
2023/01/29 03:07:43;;;;;;;;;1.00;1.00;;;;;19.80;53.47;101619.76;111590;1269;18623;-77
2023/01/29 03:10:11;;;;;;;;;3.00;3.00;;;;;19.79;53.53;101611.65;111209;1269;21062;-77
2023/01/29 03:12:38;;;;;;;;;3.00;3.00;;;;;19.78;53.26;101607.90;111641;1269;19555;-77
2023/01/29 03:15:11;;;;;;;;;1.00;1.00;;;;;19.78;53.54;101599.44;111221;1269;19959;-77
2023/01/29 03:17:39;;;;;;;;;3.50;3.50;;;;;19.77;53.33;101600.98;111535;1269;19382;-76
2023/01/29 03:20:06;;;;;;;;;3.00;3.00;;;;;19.78;53.39;101593.95;111115;1270;18203;-77
2023/01/29 03:22:34;;;;;;;;;3.00;3.00;;;;;19.79;53.38;101588.29;111509;1254;20085;-77
2023/01/29 03:33:17;;;;;;;;;1.00;1.00;;;;;19.78;53.32;101561.35;111126;1269;19379;-77
2023/01/29 03:35:47;;;;;;;;;1.00;1.00;;;;;19.77;53.48;101561.27;111433;1270;20983;-77
2023/01/29 03:38:14;;;;;;;;;3.00;3.00;;;;;19.77;53.33;101553.83;111440;1263;19962;-77
2023/01/29 03:40:42;;;;;;;;;1.00;1.00;;;;;19.78;53.33;101549.79;111640;1257;20973;-76
2023/01/29 03:43:10;;;;;;;;;1.00;1.00;;;;;19.77;53.57;101548.55;111462;1270;18674;-77
2023/01/29 03:45:37;;;;;;;;;1.00;1.00;;;;;19.77;53.42;101546.52;111802;1270;20274;-77
2023/01/29 03:48:05;;;;;;;;;3.00;3.00;;;;;19.77;53.29;101542.43;111384;1270;20728;-77
2023/01/29 03:50:32;;;;;;;;;1.67;1.00;;;;;19.77;53.11;101540.02;111754;1270;19918;-77
2023/01/29 03:53:00;;;;;;;;;1.00;1.00;;;;;19.76;53.44;101539.37;111328;1262;18788;-77
2023/01/29 03:55:27;;;;;;;;;3.00;3.00;;;;;19.77;53.32;101537.91;111812;1270;19541;-77
2023/01/29 03:57:55;;;;;;;;;1.00;1.00;;;;;19.77;53.21;101539.34;111385;1270;18417;-77
2023/01/29 04:00:22;;;;;;;;;1.00;1.00;;;;;19.76;53.33;101540.32;111802;1270;18604;-77
2023/01/29 04:02:50;;;;;;;;;3.00;3.00;;;;;19.77;53.22;101542.05;111369;1269;19367;-77
2023/01/29 04:05:17;;;;;;;;;3.00;3.00;;;;;19.76;53.36;101538.14;111803;1254;18176;-76
2023/01/29 04:07:45;;;;;;;;;1.00;1.00;;;;;19.76;53.28;101537.25;111401;1270;18820;-77
2023/01/29 04:10:12;;;;;;;;;1.00;1.00;;;;;19.75;53.33;101534.02;111798;1254;19438;-77
2023/01/29 04:12:39;;;;;;;;;3.00;3.00;;;;;19.76;53.27;101534.34;111393;1270;19521;-77
2023/01/29 04:15:07;;;;;;;;;1.00;1.00;;;;;19.76;53.34;101539.77;111540;1269;20583;-76
2023/01/29 04:17:34;;;;;;;;;1.00;1.00;;;;;19.76;53.14;101543.98;111409;1270;21046;-77
2023/01/29 04:20:02;;;;;;;;;1.00;1.00;;;;;19.77;53.22;101544.38;111584;1262;18746;-77
2023/01/29 04:22:29;;;;;;;;;1.00;1.00;;;;;19.76;53.14;101542.84;111461;1270;18951;-77
2023/01/29 04:25:01;;;;;;;;;1.00;1.00;;;;;19.76;53.24;101535.80;111255;1263;21241;-77
2023/01/29 04:27:28;;;;;;;;;1.00;1.00;;;;;19.77;53.35;101533.19;111652;1270;19207;-77
2023/01/29 04:29:56;;;;;;;;;1.00;1.00;;;;;19.76;53.14;101520.87;110938;1270;18602;-77
2023/01/29 04:32:23;;;;;;;;;1.67;1.00;;;;;19.76;53.16;101518.39;111649;1254;19932;-77
2023/01/29 04:34:51;;;;;;;;;1.00;1.00;;;;;19.76;53.28;101514.04;111244;1270;19915;-77
2023/01/29 04:37:19;;;;;;;;;1.00;1.00;;;;;19.75;53.17;101515.18;111600;1270;19848;-76
2023/01/29 04:39:46;;;;;;;;;1.00;1.00;;;;;19.76;53.23;101512.60;111140;1270;19350;-76
2023/01/29 04:42:14;;;;;;;;;3.00;1.00;;;;;19.75;53.03;101508.63;111558;1270;18684;-76
2023/01/29 04:44:41;;;;;;;;;3.00;3.00;;;;;19.74;53.26;101504.73;111139;1270;18759;-76
2023/01/29 04:47:08;;;;;;;;;1.00;1.00;;;;;19.74;53.17;101500.06;111584;1254;21261;-77
2023/01/29 04:49:36;;;;;;;;;1.00;1.00;;;;;19.74;53.19;101504.38;111159;1270;18713;-77
2023/01/29 04:52:03;;;;;;;;;1.00;1.00;;;;;19.75;53.16;101502.86;111588;1270;19972;-77
2023/01/29 04:54:31;;;;;;;;;1.00;1.00;;;;;19.77;53.35;101506.84;111170;1270;19821;-77
2023/01/29 04:56:58;;;;;;;;;1.00;1.00;;;;;19.76;53.03;101503.83;111632;1270;18415;-76
2023/01/29 04:59:26;;;;;;;;;1.00;1.00;;;;;19.77;53.25;101497.23;111184;1270;18621;-76
2023/01/29 05:01:53;;;;;;;;;1.00;1.00;;;;;19.76;53.09;101490.09;111630;1269;19678;-77
2023/01/29 05:04:21;;;;;;;;;1.00;1.00;;;;;19.76;53.30;101494.77;111247;1262;19776;-77
2023/01/29 05:06:48;;;;;;;;;1.00;1.00;;;;;19.76;53.31;101488.63;111631;1254;20007;-77
2023/01/29 05:09:16;;;;;;;;;4.00;3.00;;;;;19.76;53.27;101490.04;111222;1270;20725;-77
2023/01/29 05:11:43;;;;;;;;;1.00;1.00;;;;;19.76;53.06;101480.48;111640;1262;18800;-77
2023/01/29 05:14:11;;;;;;;;;3.00;1.00;;;;;19.75;53.19;101479.45;111195;1270;19902;-77
2023/01/29 05:16:40;;;;;;;;;3.00;3.00;;;;;19.74;53.10;101479.16;111619;1270;22026;-76
2023/01/29 05:19:08;;;;;;;;;1.00;1.00;;;;;19.75;53.09;101485.61;111668;1254;19452;-77
2023/01/29 05:21:35;;;;;;;;;2.00;2.00;;;;;19.75;53.18;101486.04;111276;1270;18667;-77
2023/01/29 05:24:03;;;;;;;;;1.00;1.00;;;;;19.75;53.24;101484.38;111700;1254;20626;-77
2023/01/29 05:29:16;;;;;;;;;1.00;1.00;;;;;19.76;53.22;101486.86;111324;1270;19041;-77
2023/01/29 05:31:44;;;;;;;;;1.00;1.00;;;;;19.75;53.09;101488.01;111531;1254;19546;-77
2023/01/29 05:34:11;;;;;;;;;1.00;1.00;;;;;19.74;53.24;101487.67;111100;1270;20706;-77
2023/01/29 05:36:39;;;;;;;;;1.00;1.00;;;;;19.73;53.33;101482.70;111545;1269;18651;-77
2023/01/29 05:39:06;;;;;;;;;1.00;1.00;;;;;19.74;53.36;101489.90;111133;1254;19536;-77
2023/01/29 05:41:34;;;;;;;;;1.00;1.00;;;;;19.73;53.44;101488.52;111540;1270;18549;-76
2023/01/29 05:44:01;;;;;;;;;1.00;1.00;;;;;19.73;53.17;101492.48;111131;1270;19924;-76
2023/01/29 05:46:29;;;;;;;;;1.00;1.00;;;;;19.74;53.08;101492.45;111585;1270;19415;-76
2023/01/29 05:48:56;;;;;;;;;1.00;1.00;;;;;19.74;53.47;101490.81;111133;1254;18529;-77
2023/01/29 05:51:23;;;;;;;;;1.00;1.00;;;;;19.73;53.29;101493.57;111566;1269;20021;-77
2023/01/29 05:53:51;;;;;;;;;1.00;1.00;;;;;19.73;53.31;101499.03;111235;1270;20721;-77
2023/01/29 05:56:18;;;;;;;;;1.00;1.00;;;;;19.74;53.17;101502.04;111597;1270;18210;-77
2023/01/29 05:58:46;;;;;;;;;1.00;1.00;;;;;19.72;53.12;101505.98;111173;1270;19095;-77
2023/01/29 06:01:13;;;;;;;;;1.00;1.00;;;;;19.72;53.17;101504.97;111585;1254;22006;-77
2023/01/29 06:03:41;;;;;;;;;1.00;1.00;;;;;19.72;53.35;101503.88;111199;1270;18154;-77
2023/01/29 06:06:08;;;;;;;;;1.00;1.00;;;;;19.74;53.21;101506.19;111655;1270;18612;-77
2023/01/29 06:08:36;;;;;;;;;1.00;1.00;;;;;19.73;53.17;101505.73;111214;1254;21129;-77
2023/01/29 06:11:03;;;;;;;;;1.00;1.00;;;;;19.73;53.25;101513.34;111650;1270;19564;-77
2023/01/29 06:13:31;;;;;;;;;1.00;1.00;;;;;19.71;53.17;101513.37;111231;1270;18633;-78
2023/01/29 06:15:58;;;;;;;;;1.00;1.00;;;;;19.72;53.05;101520.00;111712;1262;19361;-76
2023/01/29 06:18:26;;;;;;;;;1.00;1.00;;;;;19.72;53.12;101519.38;111215;1269;18142;-77
2023/01/29 06:20:53;;;;;;;;;;;;;;;19.73;53.10;101513.92;111656;1270;21059;-77
2023/01/29 06:23:20;;;;;;;;;1.00;1.00;;;;;19.73;53.16;101514.08;111304;1270;20840;-76
2023/01/29 06:25:48;;;;;;;;;1.00;1.00;;;;;19.75;53.10;101513.20;111686;1269;18050;-77
2023/01/29 06:28:16;;;;;;;;;1.00;1.00;;;;;19.76;53.19;101511.83;111223;1270;18612;-77
2023/01/29 06:30:43;;;;;;;;;3.00;3.00;;;;;19.75;53.25;101517.36;111665;1270;19571;-76
2023/01/29 06:33:11;;;;;;;;;1.00;1.00;;;;;19.75;53.06;101513.00;111205;1254;19968;-77
2023/01/29 06:35:38;;;;;;;;;1.00;1.00;;;;;19.75;53.32;101510.15;111658;1269;21008;-77
2023/01/29 06:38:05;;;;;;;;;4.00;1.00;;;;;19.75;53.12;101514.10;111220;1269;19580;-77
2023/01/29 06:40:33;;;;;;;;;1.00;1.00;;;;;19.73;53.05;101518.78;111728;1270;18188;-77
2023/01/29 06:43:00;;;;;;;;;1.00;1.00;;;;;19.73;53.26;101520.96;111318;1254;20003;-76
2023/01/29 06:45:28;;;;;;;;;1.00;1.00;;;;;19.73;53.31;101521.19;111694;1269;19716;-77
2023/01/29 06:47:55;;;;;;;;;1.00;1.00;;;;;19.72;53.03;101521.25;111282;1270;18387;-77
2023/01/29 06:50:23;;;;;;;;;1.00;1.00;;;;;19.73;53.36;101521.88;111723;1262;18947;-77
2023/01/29 06:52:50;;;;;;;;;1.00;1.00;;;;;19.72;53.14;101523.40;111309;1269;20785;-77
2023/01/29 06:55:18;;;;;;;;;1.00;1.00;;;;;19.72;53.37;101526.90;111729;1262;18835;-77
2023/01/29 06:57:45;;;;;;;;;1.00;1.00;;;;;19.71;53.42;101520.27;111296;1270;19026;-76
2023/01/29 07:00:12;;;;;;;;;1.00;1.00;;;;;19.72;53.20;101517.65;111557;1269;20652;-76
2023/01/29 07:02:40;;;;;;;;;1.00;1.00;;;;;19.76;53.41;101510.34;111278;1270;19505;-73
2023/01/29 07:05:07;;;;;;;;;1.00;1.00;;;;;19.79;53.12;101511.02;111633;1262;18626;-74
2023/01/29 07:07:35;;;;;;;;;1.00;1.00;;;;;19.81;53.27;101514.20;111344;1270;21045;-74
2023/01/29 07:10:02;;;;;;;;;3.00;3.00;;;;;19.85;53.17;101501.85;111623;1254;19581;-74
2023/01/29 07:12:30;;;;;;;;;1.00;1.00;;;;;19.90;53.27;101503.86;111368;1263;20280;-73
2023/01/29 07:14:57;;;;;;;;;4.00;4.00;;;;;19.91;53.60;101509.55;111510;1270;21014;-74
2023/01/29 07:17:25;;;;;;;;;6.00;4.00;;;;;19.83;53.15;101506.22;111382;1270;18633;-74
2023/01/29 07:19:52;;;;;;;;;4.00;4.00;;;;;19.68;51.97;101507.20;111489;1270;18648;-75
2023/01/29 07:22:20;;;;;;;;;4.00;4.00;;;;;19.71;51.90;101512.50;111381;1254;20720;-75
2023/01/29 07:24:47;;;;;;;;;4.00;4.00;;;;;19.81;51.66;101513.54;111454;1270;19647;-77
2023/01/29 07:27:15;;;;;;;;;4.00;3.00;;;;;19.87;51.62;101507.87;111364;1269;18959;-79
2023/01/29 07:29:42;;;;;;;;;3.50;3.50;;;;;19.91;51.48;101506.45;111463;1269;19392;-77
2023/01/29 07:32:10;;;;;;;;;3.00;3.00;;;;;19.94;51.85;101501.09;111402;1270;18791;-75
2023/01/29 07:34:37;;;;;;;;;3.00;3.00;;;;;19.96;51.86;101503.17;111438;1270;21256;-77
2023/01/29 07:37:05;;;;;;;;;4.00;4.00;;;;;19.98;52.03;101496.73;111429;1270;20962;-81
2023/01/29 07:39:32;;;;;;;;;3.00;3.00;;;;;20.00;52.39;101491.83;111519;1262;18773;-77
2023/01/29 07:42:01;;;;;;;;;3.00;3.00;;;;;20.00;52.84;101485.33;111358;1270;21135;-75
2023/01/29 07:44:28;;;;;;;;;3.00;3.00;;;;;19.98;52.82;101486.97;111176;1270;208152;-76
2023/01/29 07:46:56;;;;;;;;;3.00;3.00;;;;;19.95;52.85;101485.20;111168;1270;19680;-76
2023/01/29 07:49:23;;;;;;;;;3.00;3.00;;;;;19.96;53.21;101491.51;111587;1269;18974;-74
2023/01/29 07:51:51;;;;;;;;;3.00;3.00;;;;;20.05;53.71;101493.71;111257;1254;19468;-75
2023/01/29 07:54:19;;;;;;;;;3.00;3.00;;;;;20.12;54.06;101488.65;111523;1269;19684;-76
2023/01/29 07:56:46;;;;;;;;;;;;;;;20.16;54.40;101487.84;111173;1270;20003;-74
2023/01/29 07:59:13;;;;;;;;;3.00;3.00;;;;;20.21;54.56;101489.92;111580;1269;20879;-73
2023/01/29 08:01:41;;;;;;;;;3.00;3.00;;;;;20.24;54.97;101492.99;111162;1269;17986;-75
2023/01/29 08:04:08;;;;;;;;;3.00;3.00;;;;;20.28;55.18;101493.30;111599;1270;20164;-75
2023/01/29 08:06:36;;;;;;;;;3.00;3.00;;;;;20.31;55.24;101493.60;111245;1270;21901;-76
2023/01/29 08:09:03;;;;;;;;;1.00;1.00;;;;;20.29;55.40;101485.33;111639;1269;19574;-76
2023/01/29 08:11:31;;;;;;;;;1.00;1.00;;;;;20.26;55.34;101486.13;111244;1270;18938;-76
2023/01/29 08:13:58;;;;;;;;;3.00;3.00;;;;;20.27;55.54;101480.53;111675;1270;19572;-75
2023/01/29 08:16:26;;;;;;;;;3.00;3.00;;;;;20.25;55.60;101476.19;111171;1262;19812;-72
2023/01/29 08:18:53;;;;;;;;;3.00;3.00;;;;;20.26;55.49;101474.83;111590;1269;18835;-74
2023/01/29 08:21:21;;;;;;;;;2.00;2.00;;;;;20.23;55.39;101469.34;111244;1254;19724;-75
2023/01/29 08:23:48;;;;;;;;;3.00;3.00;;;;;20.22;55.66;101466.00;111603;1270;18638;-76
2023/01/29 08:26:16;;;;;;;;;1.00;1.00;;;;;20.23;55.73;101471.90;111321;1270;18781;-75
2023/01/29 08:28:43;;;;;;;;;1.00;1.00;;;;;20.24;56.51;101465.94;111636;1270;19719;-75
2023/01/29 08:31:11;;;;;;;;;1.00;1.00;;;;;20.26;57.13;101457.81;111271;1270;18251;-75
2023/01/29 08:33:38;;;;;;;;;1.00;1.00;;;;;20.23;57.19;101450.96;111643;1270;20213;-76
2023/01/29 08:36:06;;;;;;;;;3.50;3.00;;;;;20.23;57.10;101449.27;111352;1270;19760;-74
2023/01/29 08:38:33;;;;;;;;;77.00;52.00;;;;;20.24;57.10;101453.31;111639;1268;18207;-75
2023/01/29 08:41:00;;;;;;;;;79.00;57.00;;;;;20.23;56.92;101448.14;111317;1263;19057;-75
2023/01/29 08:43:28;;;;;;;;;98.00;71.50;;;;;20.20;56.73;101447.72;111744;1270;19684;-74
2023/01/29 08:45:55;;;;;;;;;85.00;61.00;;;;;20.20;56.65;101444.42;111273;1270;19944;-74
2023/01/29 08:48:24;;;;;;;;;67.00;52.00;;;;;20.20;56.84;101437.17;111639;1254;20066;-74
2023/01/29 08:50:51;;;;;;;;;52.00;45.00;;;;;20.20;56.81;101431.94;111163;1257;22180;-76
2023/01/29 08:53:23;;;;;;;;;52.00;40.00;;;;;20.21;56.52;101429.60;111602;1270;19980;-75
2023/01/29 08:55:50;;;;;;;;;36.00;31.00;;;;;20.19;56.65;101430.40;111266;1270;20244;-75
2023/01/29 08:58:18;;;;;;;;;28.00;24.50;;;;;20.16;56.61;101432.20;111503;1270;20972;-74
2023/01/29 09:00:45;;;;;;;;;;;;;;;20.15;56.66;101434.75;111401;1270;18968;-76
2023/01/29 09:03:13;;;;;;;;;25.00;22.00;;;;;20.15;56.83;101426.04;111530;1270;18539;-75
2023/01/29 09:05:40;;;;;;;;;21.00;18.00;;;;;20.16;56.81;101426.16;111344;1254;19275;-76
2023/01/29 09:08:08;;;;;;;;;19.00;15.00;;;;;20.17;56.42;101430.36;111497;1254;19931;-75
2023/01/29 09:10:35;;;;;;;;;15.00;13.00;;;;;20.14;56.61;101434.13;111368;1270;18744;-76
2023/01/29 09:13:03;;;;;;;;;16.00;15.00;;;;;20.13;56.58;101442.63;111480;1270;19732;-77
2023/01/29 09:15:30;;;;;;;;;15.00;12.00;;;;;20.09;56.77;101445.00;111352;1263;18609;-76
2023/01/29 09:17:57;;;;;;;;;12.00;12.00;;;;;20.06;56.43;101445.17;111471;1270;18744;-76
2023/01/29 09:20:25;;;;;;;;;10.00;9.00;;;;;20.04;56.52;101450.42;111370;1270;19620;-76
2023/01/29 09:22:55;;;;;;;;;12.33;9.67;;;;;20.02;56.61;101446.66;111463;1270;18832;-82
2023/01/29 09:25:22;;;;;;;;;9.00;7.00;;;;;20.03;56.36;101452.73;111464;1269;19966;-77
2023/01/29 09:27:50;;;;;;;;;7.00;7.00;;;;;20.02;56.40;101448.64;111355;1254;20980;-76
2023/01/29 09:30:17;;;;;;;;;9.00;6.00;;;;;19.99;56.14;101444.00;111383;1269;18189;-76
2023/01/29 09:32:45;;;;;;;;;10.00;7.00;;;;;19.99;56.24;101437.71;111356;1254;20170;-75
2023/01/29 09:35:12;;;;;;;;;6.00;6.00;;;;;19.99;56.11;101439.34;111402;1270;21827;-76
2023/01/29 09:37:40;;;;;;;;;6.00;6.00;;;;;20.03;56.17;101436.07;111391;1263;20332;-76
2023/01/29 09:40:07;;;;;;;;;6.00;5.00;;;;;20.08;56.01;101434.65;111513;1269;21209;-76
2023/01/29 09:42:35;;;;;;;;;6.00;6.00;;;;;20.10;56.01;101428.45;111392;1270;21020;-75
2023/01/29 09:45:03;;;;;;;;;4.00;4.00;;;;;20.14;55.80;101422.79;111560;1269;18201;-76
2023/01/29 09:47:31;;;;;;;;;6.00;6.00;;;;;20.14;55.91;101426.60;111248;1270;20030;-77
2023/01/29 09:49:58;;;;;;;;;7.67;6.67;;;;;20.15;56.09;101418.87;111638;1269;21197;-83
2023/01/29 09:52:25;;;;;;;;;7.00;6.00;;;;;20.17;56.09;101418.95;111274;1270;20711;-76
2023/01/29 09:54:53;;;;;;;;;6.00;6.00;;;;;20.15;56.16;101414.44;111589;1270;19974;-77
2023/01/29 09:57:20;;;;;;;;;6.50;5.00;;;;;20.13;56.26;101414.87;111274;1269;22251;-77
2023/01/29 09:59:48;;;;;;;;;4.00;4.00;;;;;20.13;56.22;101410.48;111511;1270;19721;-76
2023/01/29 10:02:16;;;;;;;;;6.00;4.00;;;;;20.14;56.36;101405.71;111187;1270;20274;-77
2023/01/29 10:04:43;;;;;;;;;4.00;4.00;;;;;20.12;56.26;101408.95;111569;1256;20827;-78
2023/01/29 10:07:11;;;;;;;;;10.00;6.00;;;;;20.10;56.23;101415.59;111153;1270;19719;-78
2023/01/29 10:09:38;;;;;;;;;4.00;4.00;;;;;20.06;56.30;101416.90;111558;1263;18870;-78
2023/01/29 10:12:06;;;;;;;;;4.00;4.00;;;;;20.02;56.33;101406.94;111162;1270;19515;-75
2023/01/29 10:14:36;;;;;;;;;3.00;3.00;;;;;19.99;56.16;101407.51;111583;1256;19643;-75
2023/01/29 10:17:04;;;;;;;;;3.50;3.50;;;;;19.98;56.26;101403.27;111535;1270;20065;-75
2023/01/29 10:19:31;;;;;;;;;3.00;3.00;;;;;19.98;56.26;101400.21;111121;1270;20692;-75
2023/01/29 10:21:59;;;;;;;;;4.00;3.33;;;;;19.96;56.06;101391.72;111540;1270;18443;-76
2023/01/29 10:24:26;;;;;;;;;3.00;3.00;;;;;19.95;56.10;101383.48;111174;1262;18956;-75
2023/01/29 10:26:53;;;;;;;;;3.00;3.00;;;;;19.95;56.08;101379.70;111546;1270;20935;-78
2023/01/29 10:29:22;;;;;;;;;4.00;4.00;;;;;19.94;55.78;101379.56;111180;1270;18538;-78
2023/01/29 10:31:49;;;;;;;;;4.00;4.00;;;;;19.94;55.86;101375.93;111456;1268;18850;-78
2023/01/29 10:34:16;;;;;;;;;4.00;4.00;;;;;19.95;55.76;101374.73;111072;1270;20702;-78
2023/01/29 10:36:44;;;;;;;;;3.00;3.00;;;;;19.93;55.49;101373.52;111477;1255;18575;-78
2023/01/29 10:39:11;;;;;;;;;3.00;3.00;;;;;19.93;55.65;101363.39;111066;1262;18951;-78
2023/01/29 10:41:39;;;;;;;;;3.00;3.00;;;;;19.92;55.68;101357.34;111462;1256;20986;-78
2023/01/29 10:44:06;;;;;;;;;3.00;3.00;;;;;19.92;55.33;101359.67;111091;1270;18572;-77
2023/01/29 10:46:34;;;;;;;;;3.00;3.00;;;;;19.92;55.52;101351.86;111230;1256;19870;-77
2023/01/29 10:49:01;;;;;;;;;3.00;3.00;;;;;19.92;55.36;101334.67;111076;1270;19325;-77
2023/01/29 10:51:29;;;;;;;;;2.33;2.33;;;;;19.91;55.16;101331.27;111464;1256;18413;-77
2023/01/29 10:53:56;;;;;;;;;3.00;3.00;;;;;19.90;55.37;101323.77;111074;1270;20128;-77
2023/01/29 10:56:24;;;;;;;;;3.00;3.00;;;;;19.89;55.22;101316.60;111470;1270;19583;-77
2023/01/29 10:58:51;;;;;;;;;3.00;3.00;;;;;19.91;55.19;101316.80;111169;1254;19565;-77
2023/01/29 11:01:19;;;;;;;;;3.00;3.00;;;;;19.90;55.16;101319.05;111414;1270;18638;-77
2023/01/29 11:03:46;;;;;;;;;3.00;3.00;;;;;19.89;55.23;101319.66;111141;1255;19416;-77
2023/01/29 11:06:14;;;;;;;;;3.00;3.00;;;;;19.89;55.23;101319.15;111448;1270;19783;-77
2023/01/29 11:08:41;;;;;;;;;4.00;3.00;;;;;19.88;54.94;101319.45;111160;1271;18613;-78
2023/01/29 11:11:09;;;;;;;;;4.00;4.00;;;;;19.88;55.07;101312.95;111454;1263;19677;-77
2023/01/29 11:13:37;;;;;;;;;3.00;3.00;;;;;19.88;55.03;101314.17;111366;1270;19544;-77
2023/01/29 11:16:05;;;;;;;;;6.00;3.00;;;;;19.89;54.86;101307.17;111315;1270;18973;-76
2023/01/29 11:18:32;;;;;;;;;3.00;3.00;;;;;19.89;54.80;101297.96;111390;1255;22446;-77
2023/01/29 11:21:00;;;;;;;;;3.00;3.00;;;;;19.89;54.95;101294.73;111342;1263;19912;-77
2023/01/29 11:23:27;;;;;;;;;3.00;3.00;;;;;19.88;54.71;101291.73;111258;1255;20134;-77
2023/01/29 11:25:55;;;;;;;;;4.00;4.00;;;;;19.89;54.76;101283.10;111326;1270;19536;-77
2023/01/29 11:28:23;;;;;;;;;2.00;2.00;;;;;19.89;54.61;101274.50;111180;1270;19908;-77
2023/01/29 11:30:50;;;;;;;;;1.00;1.00;;;;;19.89;54.62;101270.96;111294;1263;18607;-77
2023/01/29 11:33:17;;;;;;;;;1.00;1.00;;;;;19.89;54.59;101276.06;111341;1270;19264;-77
2023/01/29 11:35:45;;;;;;;;;3.00;3.00;;;;;19.88;54.36;101276.64;111279;1271;19575;-77
2023/01/29 11:38:12;;;;;;;;;3.00;3.00;;;;;19.88;54.63;101271.73;111339;1263;18840;-76
2023/01/29 11:40:40;;;;;;;;;3.00;3.00;;;;;19.88;54.44;101268.64;111305;1270;21487;-77
2023/01/29 11:43:07;;;;;;;;;3.00;3.00;;;;;19.90;54.51;101259.54;111400;1270;18411;-75